CES6136 ZBAD-ZYHB
Flight info
| Callsign | CES6136 |
|---|---|
| Flight time | N/A |
| Altitude | 37100 |
| Route | DOTRA6K DOTRA B334 TGO G212 RUSBO W203 PIGAM PIG39A |
| Aircraft | B738/M-SDE2E3FGHIRWXY/LB1 |
Departure
| Time | 2026-03-29 08:44 |
|---|---|
| Airport | Beijing Daxing International Airport (ZBAD) |
Arrival
| Time | N/A |
|---|---|
| Airport | Harbin Taiping International Airport (ZYHB) |
| Time | Latitude | Longitude | Altitude | Speed | Heading |
|---|---|---|---|---|---|
| 2026-03-29 08:16 | 39.50608 | 116.40662 | 90 ft | 0 kts | 310° |
| 2026-03-29 08:32 | 39.50604 | 116.40667 | 90 ft | 2 kts | 310° |
| 2026-03-29 08:32 | 39.50594 | 116.40682 | 90 ft | 1 kts | 309° |
| 2026-03-29 08:33 | 39.50588 | 116.40692 | 90 ft | 2 kts | 303° |
| 2026-03-29 08:33 | 39.50582 | 116.40710 | 90 ft | 2 kts | 281° |
| 2026-03-29 08:33 | 39.50581 | 116.40729 | 90 ft | 2 kts | 263° |
| 2026-03-29 08:33 | 39.50584 | 116.40748 | 90 ft | 2 kts | 244° |
| 2026-03-29 08:34 | 39.50593 | 116.40764 | 90 ft | 2 kts | 225° |
| 2026-03-29 08:34 | 39.50600 | 116.40771 | 90 ft | 1 kts | 214° |
| 2026-03-29 08:34 | 39.50603 | 116.40775 | 90 ft | 0 kts | 214° |
| 2026-03-29 08:36 | 39.50602 | 116.40774 | 90 ft | 0 kts | 214° |
| 2026-03-29 08:36 | 39.50594 | 116.40766 | 90 ft | 1 kts | 213° |
| 2026-03-29 08:36 | 39.50581 | 116.40756 | 90 ft | 2 kts | 213° |
| 2026-03-29 08:37 | 39.50565 | 116.40742 | 90 ft | 2 kts | 214° |
| 2026-03-29 08:37 | 39.50538 | 116.40718 | 90 ft | 8 kts | 213° |
| 2026-03-29 08:37 | 39.50452 | 116.40643 | 90 ft | 20 kts | 213° |
| 2026-03-29 08:37 | 39.50310 | 116.40582 | 90 ft | 21 kts | 171° |
| 2026-03-29 08:38 | 39.50164 | 116.40592 | 90 ft | 20 kts | 210° |
| 2026-03-29 08:38 | 39.50129 | 116.40430 | 90 ft | 18 kts | 264° |
| 2026-03-29 08:38 | 39.50060 | 116.40334 | 90 ft | 16 kts | 173° |
| 2026-03-29 08:38 | 39.49957 | 116.40332 | 90 ft | 14 kts | 217° |
| 2026-03-29 08:39 | 39.49894 | 116.40252 | 90 ft | 12 kts | 190° |
| 2026-03-29 08:39 | 39.49813 | 116.40263 | 90 ft | 11 kts | 171° |
| 2026-03-29 08:39 | 39.49740 | 116.40274 | 90 ft | 10 kts | 174° |
| 2026-03-29 08:39 | 39.49673 | 116.40284 | 90 ft | 9 kts | 173° |
| 2026-03-29 08:40 | 39.49582 | 116.40298 | 90 ft | 17 kts | 173° |
| 2026-03-29 08:40 | 39.49426 | 116.40324 | 90 ft | 27 kts | 172° |
| 2026-03-29 08:40 | 39.49242 | 116.40353 | 90 ft | 24 kts | 173° |
| 2026-03-29 08:40 | 39.49077 | 116.40377 | 90 ft | 22 kts | 173° |
| 2026-03-29 08:41 | 39.48921 | 116.40404 | 90 ft | 21 kts | 172° |
| 2026-03-29 08:41 | 39.48775 | 116.40426 | 90 ft | 20 kts | 173° |
| 2026-03-29 08:41 | 39.48638 | 116.40447 | 90 ft | 19 kts | 172° |
| 2026-03-29 08:41 | 39.48519 | 116.40417 | 90 ft | 17 kts | 247° |
| 2026-03-29 08:42 | 39.48505 | 116.40283 | 90 ft | 0 kts | 262° |
| 2026-03-29 08:42 | 39.48503 | 116.40259 | 90 ft | 8 kts | 262° |
| 2026-03-29 08:42 | 39.48497 | 116.40163 | 90 ft | 10 kts | 277° |
| 2026-03-29 08:43 | 39.48547 | 116.40122 | 90 ft | 8 kts | 352° |
| 2026-03-29 08:43 | 39.48610 | 116.40113 | 90 ft | 12 kts | 353° |
| 2026-03-29 08:43 | 39.48758 | 116.40091 | 90 ft | 31 kts | 353° |
| 2026-03-29 08:43 | 39.49099 | 116.40037 | 90 ft | 81 kts | 353° |
| 2026-03-29 08:44 | 39.49964 | 116.39902 | 92 ft | 163 kts | 354° |
| 2026-03-29 08:44 | 39.51189 | 116.39710 | 607 ft | 195 kts | 353° |
| 2026-03-29 08:44 | 39.52614 | 116.39475 | 1122 ft | 224 kts | 353° |
| 2026-03-29 08:44 | 39.54121 | 116.39209 | 2353 ft | 212 kts | 354° |
| 2026-03-29 08:45 | 39.55582 | 116.38957 | 2735 ft | 236 kts | 353° |
| 2026-03-29 08:45 | 39.57263 | 116.38668 | 3445 ft | 247 kts | 353° |
| 2026-03-29 08:45 | 39.59071 | 116.38374 | 4141 ft | 258 kts | 352° |
| 2026-03-29 08:45 | 39.60813 | 116.38094 | 4746 ft | 263 kts | 352° |
| 2026-03-29 08:46 | 39.62630 | 116.37802 | 4920 ft | 266 kts | 352° |
| 2026-03-29 08:46 | 39.64479 | 116.37656 | 4926 ft | 263 kts | 3° |